EZY323 EGAA-EGPH
Flight info
| Callsign | EZY323 |
|---|---|
| Flight time | 0h 34m |
| Altitude | 17000 |
| Route | BLACA P600 TUNSO |
| Aircraft | A320/M-SDE3FGHIRWY/LB1 |
Departure
| Time | 2026-05-05 06:01 |
|---|---|
| Airport | Belfast International Airport (EGAA) |
Arrival
| Time | 2026-05-05 06:35 |
|---|---|
| Airport | Edinburgh Airport (EGPH) |
| Time | Latitude | Longitude | Altitude | Speed | Heading |
|---|---|---|---|---|---|
| 2026-05-05 05:26 | 54.66109 | -6.21354 | 275 ft | 0 kts | 245° |
| 2026-05-05 05:53 | 54.66110 | -6.21351 | 272 ft | 2 kts | 245° |
| 2026-05-05 05:53 | 54.66120 | -6.21313 | 274 ft | 2 kts | 245° |
| 2026-05-05 05:53 | 54.66132 | -6.21282 | 277 ft | 4 kts | 199° |
| 2026-05-05 05:54 | 54.66161 | -6.21290 | 274 ft | 2 kts | 155° |
| 2026-05-05 05:54 | 54.66156 | -6.21286 | 273 ft | 4 kts | 155° |
| 2026-05-05 05:54 | 54.66132 | -6.21266 | 278 ft | 4 kts | 155° |
| 2026-05-05 05:54 | 54.66125 | -6.21261 | 276 ft | 0 kts | 155° |
| 2026-05-05 05:57 | 54.66117 | -6.21255 | 274 ft | 5 kts | 155° |
| 2026-05-05 05:57 | 54.66068 | -6.21215 | 272 ft | 8 kts | 152° |
| 2026-05-05 05:57 | 54.66052 | -6.21139 | 272 ft | 7 kts | 79° |
| 2026-05-05 05:57 | 54.66070 | -6.21070 | 272 ft | 8 kts | 63° |
| 2026-05-05 05:58 | 54.66109 | -6.20931 | 272 ft | 17 kts | 65° |
| 2026-05-05 05:58 | 54.66169 | -6.20705 | 272 ft | 23 kts | 65° |
| 2026-05-05 05:58 | 54.66235 | -6.20461 | 272 ft | 23 kts | 65° |
| 2026-05-05 05:58 | 54.66299 | -6.20220 | 276 ft | 23 kts | 64° |
| 2026-05-05 05:59 | 54.66347 | -6.20046 | 272 ft | 13 kts | 65° |
| 2026-05-05 05:59 | 54.66382 | -6.19915 | 272 ft | 11 kts | 65° |
| 2026-05-05 05:59 | 54.66393 | -6.19794 | 272 ft | 10 kts | 102° |
| 2026-05-05 05:59 | 54.66356 | -6.19711 | 272 ft | 8 kts | 145° |
| 2026-05-05 06:00 | 54.66280 | -6.19666 | 272 ft | 15 kts | 195° |
| 2026-05-05 06:00 | 54.66241 | -6.19757 | 272 ft | 0 kts | 245° |
| 2026-05-05 06:00 | 54.66216 | -6.19851 | 272 ft | 31 kts | 245° |
| 2026-05-05 06:00 | 54.66013 | -6.20603 | 273 ft | 104 kts | 245° |
| 2026-05-05 06:01 | 54.65630 | -6.22020 | 280 ft | 157 kts | 245° |
| 2026-05-05 06:01 | 54.65155 | -6.23697 | 916 ft | 155 kts | 246° |
| 2026-05-05 06:01 | 54.64696 | -6.25390 | 1598 ft | 157 kts | 250° |
| 2026-05-05 06:01 | 54.64195 | -6.27261 | 1867 ft | 185 kts | 244° |
| 2026-05-05 06:02 | 54.63192 | -6.28858 | 2149 ft | 216 kts | 203° |
| 2026-05-05 06:02 | 54.61616 | -6.28965 | 2445 ft | 245 kts | 161° |
| 2026-05-05 06:02 | 54.60192 | -6.27225 | 2913 ft | 263 kts | 123° |
| 2026-05-05 06:02 | 54.59620 | -6.24279 | 3737 ft | 262 kts | 87° |
| 2026-05-05 06:03 | 54.60095 | -6.21288 | 4638 ft | 260 kts | 58° |
| 2026-05-05 06:03 | 54.61092 | -6.18724 | 5542 ft | 263 kts | 51° |
| 2026-05-05 06:03 | 54.62173 | -6.16141 | 6432 ft | 268 kts | 52° |
| 2026-05-05 06:03 | 54.63268 | -6.13508 | 7266 ft | 272 kts | 52° |
| 2026-05-05 06:04 | 54.64372 | -6.10812 | 8061 ft | 280 kts | 54° |
| 2026-05-05 06:04 | 54.65310 | -6.07844 | 8937 ft | 284 kts | 62° |
| 2026-05-05 06:04 | 54.66115 | -6.04696 | 9771 ft | 289 kts | 64° |
| 2026-05-05 06:04 | 54.66899 | -6.01447 | 10404 ft | 301 kts | 65° |
| 2026-05-05 06:05 | 54.67737 | -5.97974 | 10662 ft | 325 kts | 65° |
| 2026-05-05 06:05 | 54.68648 | -5.94255 | 10873 ft | 348 kts | 65° |
| 2026-05-05 06:05 | 54.69627 | -5.90321 | 11301 ft | 361 kts | 64° |
| 2026-05-05 06:05 | 54.70623 | -5.86361 | 11958 ft | 367 kts | 64° |
| 2026-05-05 06:06 | 54.71653 | -5.82297 | 12656 ft | 371 kts | 64° |
| 2026-05-05 06:06 | 54.72701 | -5.78182 | 13345 ft | 376 kts | 64° |
| 2026-05-05 06:06 | 54.73763 | -5.74019 | 14010 ft | 381 kts | 64° |
| 2026-05-05 06:06 | 54.74838 | -5.69809 | 14599 ft | 385 kts | 64° |
| 2026-05-05 06:07 | 54.75925 | -5.65539 | 15207 ft | 389 kts | 64° |
| 2026-05-05 06:07 | 54.77000 | -5.61290 | 15796 ft | 393 kts | 65° |
| 2026-05-05 06:07 | 54.78113 | -5.56868 | 16407 ft | 397 kts | 65° |
| 2026-05-05 06:07 | 54.79204 | -5.52519 | 16909 ft | 401 kts | 65° |
| 2026-05-05 06:08 | 54.80317 | -5.48074 | 17034 ft | 405 kts | 65° |
| 2026-05-05 06:08 | 54.81469 | -5.43486 | 17073 ft | 424 kts | 65° |
| 2026-05-05 06:08 | 54.82669 | -5.38709 | 17064 ft | 437 kts | 65° |
| 2026-05-05 06:08 | 54.83882 | -5.33842 | 17060 ft | 440 kts | 65° |
| 2026-05-05 06:09 | 54.85093 | -5.28957 | 17056 ft | 441 kts | 65° |
| 2026-05-05 06:09 | 54.86358 | -5.24110 | 17051 ft | 441 kts | 60° |
| 2026-05-05 06:09 | 54.88009 | -5.19651 | 17052 ft | 439 kts | 50° |
| 2026-05-05 06:09 | 54.90062 | -5.15761 | 17048 ft | 436 kts | 40° |
| 2026-05-05 06:10 | 54.92416 | -5.12586 | 17049 ft | 434 kts | 30° |
| 2026-05-05 06:10 | 54.95054 | -5.10086 | 17053 ft | 432 kts | 24° |
| 2026-05-05 06:10 | 54.97750 | -5.07778 | 17047 ft | 432 kts | 24° |
| 2026-05-05 06:10 | 55.00445 | -5.05450 | 17057 ft | 432 kts | 24° |
| 2026-05-05 06:11 | 55.03133 | -5.03113 | 17058 ft | 432 kts | 24° |
| 2026-05-05 06:11 | 55.05826 | -5.00762 | 17063 ft | 433 kts | 24° |
| 2026-05-05 06:11 | 55.08402 | -4.98024 | 17057 ft | 436 kts | 35° |
| 2026-05-05 06:11 | 55.10643 | -4.94436 | 17061 ft | 439 kts | 46° |
| 2026-05-05 06:12 | 55.12427 | -4.90235 | 17040 ft | 422 kts | 57° |
| 2026-05-05 06:12 | 55.13692 | -4.85784 | 17053 ft | 410 kts | 65° |
| 2026-05-05 06:12 | 55.14821 | -4.81240 | 17055 ft | 406 kts | 65° |
| 2026-05-05 06:12 | 55.15946 | -4.76722 | 17057 ft | 405 kts | 65° |
| 2026-05-05 06:13 | 55.17070 | -4.72209 | 17044 ft | 405 kts | 65° |
| 2026-05-05 06:13 | 55.18192 | -4.67693 | 17047 ft | 405 kts | 65° |
| 2026-05-05 06:13 | 55.19310 | -4.63165 | 17048 ft | 405 kts | 65° |
| 2026-05-05 06:13 | 55.20422 | -4.58637 | 17048 ft | 405 kts | 65° |
| 2026-05-05 06:14 | 55.21534 | -4.54098 | 16451 ft | 408 kts | 65° |
| 2026-05-05 06:14 | 55.22655 | -4.49520 | 15290 ft | 421 kts | 65° |
| 2026-05-05 06:14 | 55.23821 | -4.44762 | 14371 ft | 427 kts | 65° |
| 2026-05-05 06:14 | 55.24973 | -4.40040 | 14068 ft | 415 kts | 65° |
| 2026-05-05 06:15 | 55.26091 | -4.35442 | 13829 ft | 406 kts | 65° |
| 2026-05-05 06:15 | 55.27193 | -4.30904 | 13578 ft | 403 kts | 65° |
| 2026-05-05 06:15 | 55.28290 | -4.26391 | 13341 ft | 401 kts | 65° |
| 2026-05-05 06:15 | 55.29379 | -4.21902 | 13102 ft | 399 kts | 65° |
| 2026-05-05 06:16 | 55.30459 | -4.17427 | 12868 ft | 397 kts | 65° |
| 2026-05-05 06:16 | 55.31518 | -4.13028 | 12632 ft | 396 kts | 65° |
| 2026-05-05 06:16 | 55.32588 | -4.08594 | 12393 ft | 394 kts | 65° |
| 2026-05-05 06:16 | 55.33654 | -4.04171 | 12161 ft | 392 kts | 65° |
| 2026-05-05 06:17 | 55.34712 | -3.99763 | 11933 ft | 391 kts | 65° |
| 2026-05-05 06:17 | 55.35760 | -3.95373 | 11694 ft | 389 kts | 65° |
| 2026-05-05 06:17 | 55.36803 | -3.90992 | 11469 ft | 387 kts | 65° |
| 2026-05-05 06:17 | 55.37838 | -3.86636 | 11237 ft | 385 kts | 65° |
| 2026-05-05 06:18 | 55.38850 | -3.82375 | 11070 ft | 369 kts | 65° |
| 2026-05-05 06:18 | 55.39816 | -3.78296 | 10944 ft | 353 kts | 65° |
| 2026-05-05 06:18 | 55.40738 | -3.74396 | 10820 ft | 339 kts | 65° |
| 2026-05-05 06:18 | 55.41626 | -3.70643 | 10696 ft | 326 kts | 65° |
| 2026-05-05 06:19 | 55.42469 | -3.67078 | 10576 ft | 314 kts | 65° |
| 2026-05-05 06:19 | 55.43294 | -3.63586 | 10431 ft | 304 kts | 65° |
| 2026-05-05 06:19 | 55.44097 | -3.60179 | 10213 ft | 298 kts | 65° |
| 2026-05-05 06:19 | 55.44889 | -3.56812 | 10086 ft | 297 kts | 65° |
| 2026-05-05 06:20 | 55.45676 | -3.53456 | 9934 ft | 296 kts | 65° |
| 2026-05-05 06:20 | 55.46459 | -3.50106 | 9753 ft | 295 kts | 65° |
| 2026-05-05 06:20 | 55.47238 | -3.46772 | 9573 ft | 294 kts | 65° |
| 2026-05-05 06:20 | 55.48004 | -3.43490 | 9405 ft | 293 kts | 65° |
| 2026-05-05 06:21 | 55.48777 | -3.40173 | 9236 ft | 292 kts | 65° |
| 2026-05-05 06:21 | 55.49730 | -3.37046 | 9073 ft | 288 kts | 51° |
| 2026-05-05 06:21 | 55.51070 | -3.34470 | 8904 ft | 284 kts | 37° |
| 2026-05-05 06:21 | 55.52697 | -3.32558 | 8743 ft | 280 kts | 26° |
| 2026-05-05 06:22 | 55.54407 | -3.30903 | 8582 ft | 280 kts | 26° |
| 2026-05-05 06:22 | 55.56112 | -3.29243 | 8417 ft | 279 kts | 26° |
| 2026-05-05 06:22 | 55.57810 | -3.27580 | 8261 ft | 279 kts | 27° |
| 2026-05-05 06:22 | 55.59499 | -3.25920 | 8099 ft | 278 kts | 27° |
| 2026-05-05 06:23 | 55.61184 | -3.24260 | 7941 ft | 277 kts | 27° |
| 2026-05-05 06:23 | 55.62840 | -3.22625 | 7776 ft | 276 kts | 27° |
| 2026-05-05 06:23 | 55.64515 | -3.20971 | 7616 ft | 275 kts | 27° |
| 2026-05-05 06:23 | 55.66183 | -3.19323 | 7455 ft | 274 kts | 27° |
| 2026-05-05 06:24 | 55.67840 | -3.17687 | 7298 ft | 269 kts | 27° |
| 2026-05-05 06:24 | 55.69438 | -3.16105 | 7130 ft | 258 kts | 27° |
| 2026-05-05 06:24 | 55.71020 | -3.14482 | 6557 ft | 265 kts | 28° |
| 2026-05-05 06:24 | 55.72603 | -3.12847 | 6378 ft | 265 kts | 28° |
| 2026-05-05 06:25 | 55.74204 | -3.11200 | 6171 ft | 266 kts | 29° |
| 2026-05-05 06:25 | 55.75780 | -3.09581 | 5964 ft | 265 kts | 29° |
| 2026-05-05 06:25 | 55.77377 | -3.07943 | 5750 ft | 264 kts | 29° |
| 2026-05-05 06:25 | 55.78969 | -3.06312 | 5535 ft | 264 kts | 29° |
| 2026-05-05 06:26 | 55.80557 | -3.04690 | 5333 ft | 263 kts | 29° |
| 2026-05-05 06:26 | 55.82144 | -3.03077 | 5126 ft | 262 kts | 28° |
| 2026-05-05 06:26 | 55.83758 | -3.01603 | 4913 ft | 261 kts | 25° |
| 2026-05-05 06:26 | 55.85389 | -3.00199 | 4706 ft | 260 kts | 25° |
| 2026-05-05 06:27 | 55.87019 | -2.98804 | 4508 ft | 259 kts | 25° |
| 2026-05-05 06:27 | 55.90220 | -2.96058 | 4111 ft | 255 kts | 25° |
| 2026-05-05 06:27 | 55.91820 | -2.94682 | 3947 ft | 254 kts | 25° |
| 2026-05-05 06:28 | 55.93403 | -2.93320 | 3531 ft | 252 kts | 25° |
| 2026-05-05 06:28 | 55.94996 | -2.92141 | 3269 ft | 242 kts | 12° |
| 2026-05-05 06:28 | 55.96626 | -2.92034 | 3148 ft | 230 kts | 349° |
| 2026-05-05 06:28 | 55.98062 | -2.93058 | 3040 ft | 218 kts | 326° |
| 2026-05-05 06:29 | 55.99187 | -2.94772 | 3020 ft | 211 kts | 319° |
| 2026-05-05 06:29 | 56.00278 | -2.96517 | 3024 ft | 211 kts | 320° |
| 2026-05-05 06:29 | 56.01358 | -2.98235 | 3026 ft | 211 kts | 320° |
| 2026-05-05 06:29 | 56.02438 | -2.99955 | 3024 ft | 202 kts | 320° |
| 2026-05-05 06:30 | 56.03458 | -3.01584 | 3021 ft | 193 kts | 319° |
| 2026-05-05 06:30 | 56.04283 | -3.03451 | 3024 ft | 192 kts | 299° |
| 2026-05-05 06:30 | 56.04691 | -3.05728 | 3027 ft | 194 kts | 278° |
| 2026-05-05 06:30 | 56.04616 | -3.08136 | 3028 ft | 197 kts | 257° |
| 2026-05-05 06:31 | 56.04047 | -3.10379 | 3034 ft | 200 kts | 241° |
| 2026-05-05 06:31 | 56.03329 | -3.12514 | 3029 ft | 200 kts | 242° |
| 2026-05-05 06:31 | 56.02630 | -3.14595 | 2926 ft | 194 kts | 242° |
| 2026-05-05 06:31 | 56.01945 | -3.16635 | 2658 ft | 189 kts | 242° |
| 2026-05-05 06:32 | 56.01275 | -3.18629 | 2417 ft | 185 kts | 243° |
| 2026-05-05 06:32 | 56.00622 | -3.20573 | 2169 ft | 181 kts | 242° |
| 2026-05-05 06:32 | 55.99987 | -3.22461 | 1926 ft | 173 kts | 243° |
| 2026-05-05 06:32 | 55.99393 | -3.24219 | 1717 ft | 157 kts | 243° |
| 2026-05-05 06:33 | 55.98852 | -3.25825 | 1490 ft | 146 kts | 242° |
| 2026-05-05 06:33 | 55.98336 | -3.27359 | 1285 ft | 143 kts | 242° |
| 2026-05-05 06:33 | 55.97829 | -3.28865 | 1078 ft | 140 kts | 242° |
| 2026-05-05 06:33 | 55.97334 | -3.30334 | 865 ft | 140 kts | 241° |
| 2026-05-05 06:34 | 55.96833 | -3.31817 | 667 ft | 140 kts | 241° |
| 2026-05-05 06:34 | 55.96338 | -3.33306 | 472 ft | 139 kts | 241° |
| 2026-05-05 06:34 | 55.95837 | -3.34784 | 284 ft | 139 kts | 239° |
| 2026-05-05 06:34 | 55.95332 | -3.36256 | 119 ft | 139 kts | 239° |
| 2026-05-05 06:35 | 55.94934 | -3.37449 | 110 ft | 72 kts | 238° |
| 2026-05-05 06:35 | 55.94778 | -3.37909 | 117 ft | 28 kts | 239° |
| 2026-05-05 06:35 | 55.94706 | -3.38058 | 115 ft | 12 kts | 188° |
| 2026-05-05 06:35 | 55.94634 | -3.37996 | 112 ft | 10 kts | 150° |
| 2026-05-05 06:36 | 55.94593 | -3.37917 | 113 ft | 8 kts | 101° |
| 2026-05-05 06:36 | 55.94615 | -3.37819 | 112 ft | 12 kts | 59° |
| 2026-05-05 06:36 | 55.94669 | -3.37663 | 113 ft | 15 kts | 58° |
| 2026-05-05 06:36 | 55.94726 | -3.37493 | 112 ft | 16 kts | 59° |
| 2026-05-05 06:37 | 55.94786 | -3.37314 | 112 ft | 17 kts | 59° |
| 2026-05-05 06:37 | 55.94850 | -3.37126 | 112 ft | 18 kts | 59° |
| 2026-05-05 06:37 | 55.94900 | -3.36975 | 112 ft | 11 kts | 58° |
| 2026-05-05 06:37 | 55.94928 | -3.36882 | 112 ft | 8 kts | 79° |
| 2026-05-05 06:38 | 55.94904 | -3.36815 | 112 ft | 6 kts | 143° |
| 2026-05-05 06:38 | 55.94852 | -3.36783 | 112 ft | 9 kts | 177° |
| 2026-05-05 06:38 | 55.94791 | -3.36778 | 112 ft | 8 kts | 173° |
| 2026-05-05 06:38 | 55.94743 | -3.36743 | 111 ft | 7 kts | 168° |
| 2026-05-05 06:39 | 55.94698 | -3.36739 | 112 ft | 6 kts | 178° |
| 2026-05-05 06:39 | 55.94662 | -3.36727 | 112 ft | 4 kts | 146° |
| 2026-05-05 06:39 | 55.94658 | -3.36685 | 112 ft | 3 kts | 91° |
| 2026-05-05 06:39 | 55.94659 | -3.36652 | 112 ft | 2 kts | 88° |
| 2026-05-05 06:40 | 55.94659 | -3.36627 | 112 ft | 2 kts | 88° |
| 2026-05-05 06:40 | 55.94660 | -3.36615 | 112 ft | 0 kts | 88° |